createdAt,value
2018-04-25T00:01:02.266Z,6.03
2018-04-25T00:03:29.843Z,6.33
2018-04-25T00:05:57.370Z,7.50
2018-04-25T00:08:25.002Z,6.33
2018-04-25T00:10:52.521Z,7.07
2018-04-25T00:13:20.078Z,6.63
2018-04-25T00:15:47.630Z,6.20
2018-04-25T00:18:15.206Z,7.07
2018-04-25T00:20:42.733Z,5.87
2018-04-25T00:23:10.363Z,6.13
2018-04-25T00:25:37.943Z,7.03
2018-04-25T00:28:05.471Z,5.93
2018-04-25T00:33:07.973Z,6.90
2018-04-25T00:35:35.526Z,7.50
2018-04-25T00:38:03.054Z,8.55
2018-04-25T00:40:30.602Z,9.37
2018-04-25T00:42:58.191Z,11.03
2018-04-25T00:45:25.866Z,10.07
2018-04-25T00:47:53.397Z,7.67
2018-04-25T00:50:20.935Z,10.80
2018-04-25T00:52:48.540Z,12.60
2018-04-25T00:55:16.203Z,9.53
2018-04-25T00:57:43.823Z,10.23
2018-04-25T01:00:11.393Z,9.10
2018-04-25T01:02:39.000Z,11.23
2018-04-25T01:05:06.526Z,13.33
2018-04-25T01:07:34.176Z,15.27
2018-04-25T01:10:01.774Z,14.93
2018-04-25T01:12:29.458Z,11.63
2018-04-25T01:14:57.083Z,11.03
2018-04-25T01:17:24.748Z,12.33
2018-04-25T01:19:52.313Z,10.83
2018-04-25T01:22:19.846Z,11.50
2018-04-25T01:24:47.420Z,16.30
2018-04-25T01:27:14.984Z,14.40
2018-04-25T01:29:43.374Z,11.70
2018-04-25T01:32:10.922Z,12.63
2018-04-25T01:34:42.278Z,12.70
2018-04-25T01:37:20.729Z,14.67
2018-04-25T01:39:52.654Z,13.52
2018-04-25T01:42:24.066Z,12.20
2018-04-25T01:44:58.411Z,13.30
2018-04-25T01:47:27.792Z,13.23
2018-04-25T01:53:10.143Z,12.70
2018-04-25T01:55:49.493Z,12.97
2018-04-25T01:58:28.915Z,15.83
2018-04-25T02:01:08.174Z,13.60
2018-04-25T02:03:45.447Z,11.53
2018-04-25T02:06:13.034Z,13.57
2018-04-25T02:08:40.657Z,12.68
2018-04-25T02:11:08.258Z,13.33
2018-04-25T02:13:35.808Z,15.33
2018-04-25T02:16:03.436Z,13.70
2018-04-25T02:18:36.063Z,11.17
2018-04-25T02:21:03.675Z,13.23
2018-04-25T02:23:31.217Z,13.47
2018-04-25T02:25:58.914Z,11.80
2018-04-25T02:28:26.443Z,15.73
2018-04-25T02:30:54.008Z,12.23
2018-04-25T02:33:21.530Z,13.70
2018-04-25T02:35:49.398Z,11.60
2018-04-25T02:38:17.001Z,13.40
2018-04-25T02:40:44.579Z,13.33
2018-04-25T02:43:12.231Z,11.55
2018-04-25T02:45:39.798Z,12.83
2018-04-25T02:48:07.391Z,12.07
2018-04-25T02:50:35.296Z,12.77
2018-04-25T02:53:02.860Z,14.43
2018-04-25T02:55:30.434Z,13.07
2018-04-25T02:57:58.000Z,12.10
2018-04-25T03:00:25.553Z,16.63
2018-04-25T03:02:53.153Z,14.50
2018-04-25T03:05:20.683Z,14.70
2018-04-25T03:07:48.238Z,15.07
2018-04-25T03:10:15.762Z,21.33
2018-04-25T03:12:43.344Z,16.00
2018-04-25T03:15:10.916Z,18.73
2018-04-25T03:17:38.470Z,13.33
2018-04-25T03:20:05.989Z,15.83
2018-04-25T03:22:33.629Z,17.93
2018-04-25T03:25:01.102Z,13.00
2018-04-25T03:27:28.676Z,13.67
2018-04-25T03:29:56.206Z,16.27
2018-04-25T03:32:23.781Z,15.97
2018-04-25T03:34:51.332Z,17.12
2018-04-25T03:37:18.914Z,18.23
2018-04-25T03:39:46.437Z,15.27
2018-04-25T03:42:14.009Z,16.27
2018-04-25T03:44:41.542Z,16.03
2018-04-25T03:47:09.122Z,16.70
2018-04-25T03:49:36.649Z,17.60
2018-04-25T03:52:04.256Z,14.27
2018-04-25T03:54:31.799Z,17.07
2018-04-25T03:56:59.330Z,13.17
2018-04-25T03:59:26.900Z,12.70
2018-04-25T04:01:54.455Z,14.07
2018-04-25T04:04:22.010Z,12.07
2018-04-25T04:06:49.543Z,13.27
2018-04-25T04:09:17.144Z,14.48
2018-04-25T04:11:44.666Z,12.73
2018-04-25T04:14:15.520Z,15.02
2018-04-25T04:16:43.237Z,15.07
2018-04-25T04:19:10.826Z,12.32
2018-04-25T04:21:38.372Z,12.18
2018-04-25T04:24:06.571Z,10.90
2018-04-25T04:26:34.131Z,13.83
2018-04-25T04:29:01.709Z,12.47
2018-04-25T04:31:29.232Z,11.00
2018-04-25T04:33:56.796Z,11.10
2018-04-25T04:36:24.336Z,12.32
2018-04-25T04:38:51.917Z,10.00
2018-04-25T04:41:19.487Z,11.73
2018-04-25T04:43:47.070Z,11.23
2018-04-25T04:46:14.681Z,11.30
2018-04-25T04:48:42.248Z,11.67
2018-04-25T04:51:09.815Z,11.77
2018-04-25T04:53:37.430Z,12.60
2018-04-25T04:56:04.955Z,12.70
2018-04-25T04:58:32.697Z,13.43
2018-04-25T05:01:00.210Z,11.93
2018-04-25T05:03:27.763Z,12.83
2018-04-25T05:05:55.366Z,15.07
2018-04-25T05:08:23.111Z,11.93
2018-04-25T05:10:50.668Z,11.27
2018-04-25T05:13:18.222Z,13.17
2018-04-25T05:15:45.775Z,14.10
2018-04-25T05:18:13.327Z,12.17
2018-04-25T05:20:40.938Z,17.93
2018-04-25T05:23:08.530Z,12.33
2018-04-25T05:25:36.080Z,13.62
2018-04-25T05:28:03.837Z,16.70
2018-04-25T05:30:31.666Z,29.83
2018-04-25T05:32:59.587Z,28.53
2018-04-25T05:35:27.165Z,25.12
2018-04-25T05:37:54.693Z,27.87
2018-04-25T05:40:23.598Z,23.40
2018-04-25T05:42:51.219Z,11.17
2018-04-25T05:45:18.753Z,11.00
2018-04-25T05:47:46.269Z,11.30
2018-04-25T05:50:13.830Z,8.55
2018-04-25T05:52:41.355Z,12.33
2018-04-25T05:55:08.906Z,9.13
2018-04-25T05:57:36.447Z,10.23
2018-04-25T06:00:04.059Z,10.33
2018-04-25T06:02:31.638Z,9.17
2018-04-25T06:04:59.186Z,10.53
2018-04-25T06:07:26.750Z,11.67
2018-04-25T06:09:54.645Z,13.00
2018-04-25T06:12:22.239Z,10.43
2018-04-25T06:14:49.750Z,10.23
2018-04-25T06:17:17.279Z,9.63
2018-04-25T06:19:44.935Z,10.10
2018-04-25T06:22:12.405Z,12.43
2018-04-25T06:24:39.961Z,13.17
2018-04-25T06:27:07.905Z,14.60
2018-04-25T06:29:35.467Z,11.10
2018-04-25T06:32:03.024Z,13.27
2018-04-25T06:34:30.638Z,15.50
2018-04-25T06:36:58.228Z,14.63
2018-04-25T06:39:25.931Z,14.13
2018-04-25T06:41:55.560Z,13.47
2018-04-25T06:44:24.914Z,13.53
2018-04-25T06:46:52.476Z,16.03
2018-04-25T06:49:20.052Z,14.57
2018-04-25T06:51:47.709Z,13.32
2018-04-25T06:54:15.290Z,15.83
2018-04-25T06:56:42.857Z,14.13
2018-04-25T06:59:10.478Z,18.07
2018-04-25T07:01:38.734Z,20.33
2018-04-25T07:04:06.322Z,14.83
2018-04-25T07:06:33.871Z,20.03
2018-04-25T07:09:01.427Z,16.97
2018-04-25T07:11:29.002Z,15.30
2018-04-25T07:13:56.527Z,15.33
2018-04-25T07:16:24.227Z,17.17
2018-04-25T07:18:51.760Z,16.17
2018-04-25T07:21:19.335Z,18.17
2018-04-25T07:23:46.906Z,18.67
2018-04-25T07:26:15.092Z,17.47
2018-04-25T07:28:42.703Z,16.63
2018-04-25T07:31:10.589Z,17.17
2018-04-25T07:33:38.975Z,16.25
2018-04-25T07:36:06.556Z,16.87
2018-04-25T07:38:34.103Z,19.63
2018-04-25T07:41:01.661Z,20.10
2018-04-25T07:43:29.207Z,19.83
2018-04-25T07:45:56.778Z,19.90
2018-04-25T07:48:24.309Z,21.00
2018-04-25T07:50:51.865Z,18.10
2018-04-25T07:53:19.447Z,18.87
2018-04-25T07:55:47.017Z,21.10
2018-04-25T07:58:14.569Z,22.77
2018-04-25T08:00:42.227Z,20.63
2018-04-25T08:03:09.888Z,18.60
2018-04-25T08:05:37.446Z,27.07
2018-04-25T08:08:04.977Z,21.53
2018-04-25T08:10:32.554Z,20.63
2018-04-25T08:13:11.849Z,20.77
2018-04-25T08:15:51.340Z,26.20
2018-04-25T08:18:30.735Z,27.17
2018-04-25T08:24:11.919Z,23.07
2018-04-25T08:26:39.495Z,20.03
2018-04-25T08:29:07.098Z,22.10
2018-04-25T08:31:35.073Z,22.30
2018-04-25T08:34:03.350Z,20.60
2018-04-25T08:36:31.322Z,20.87
2018-04-25T08:38:58.871Z,19.80
2018-04-25T08:41:27.232Z,20.33
2018-04-25T08:43:57.503Z,22.20
2018-04-25T08:46:25.337Z,21.33
2018-04-25T08:48:53.139Z,21.47
2018-04-25T08:51:23.187Z,21.67
2018-04-25T08:53:50.918Z,20.80
2018-04-25T08:56:19.621Z,20.90
2018-04-25T08:58:49.173Z,20.67
2018-04-25T09:01:16.860Z,19.23
2018-04-25T09:03:44.493Z,18.35
2018-04-25T09:06:13.695Z,17.80
2018-04-25T09:08:43.077Z,18.30
2018-04-25T09:11:10.952Z,17.73
2018-04-25T09:13:39.813Z,15.45
2018-04-25T09:16:08.164Z,16.70
2018-04-25T09:18:38.200Z,14.87
2018-04-25T09:21:06.143Z,15.63
2018-04-25T09:23:33.997Z,15.90
2018-04-25T09:26:01.573Z,15.17
2018-04-25T09:28:29.102Z,16.00
2018-04-25T09:30:56.649Z,15.18
2018-04-25T09:33:24.514Z,20.75
2018-04-25T09:35:52.053Z,18.02
2018-04-25T09:38:20.158Z,13.10
2018-04-25T09:40:48.013Z,15.43
2018-04-25T09:43:18.561Z,17.00
2018-04-25T09:45:46.601Z,13.57
2018-04-25T09:48:19.737Z,12.07
2018-04-25T09:50:47.831Z,14.00
2018-04-25T09:53:15.421Z,10.33
2018-04-25T09:55:43.327Z,10.50
2018-04-25T09:58:10.893Z,13.60
2018-04-25T10:00:44.080Z,10.33
2018-04-25T10:03:17.630Z,15.30
2018-04-25T10:05:45.234Z,11.00
2018-04-25T10:08:12.890Z,10.43
2018-04-25T10:10:40.484Z,12.93
2018-04-25T10:13:11.398Z,10.77
2018-04-25T10:15:39.662Z,8.00
2018-04-25T10:18:07.221Z,8.60
2018-04-25T10:20:38.395Z,8.10
2018-04-25T10:23:06.227Z,7.63
2018-04-25T10:25:34.046Z,6.87
2018-04-25T10:28:03.420Z,6.83
2018-04-25T10:30:32.935Z,6.43
2018-04-25T10:33:02.512Z,6.70
2018-04-25T10:35:30.994Z,6.93
2018-04-25T10:37:58.536Z,6.13
2018-04-25T10:40:28.325Z,5.97
2018-04-25T10:42:56.419Z,6.00
2018-04-25T10:45:23.964Z,6.40
2018-04-25T10:47:51.538Z,6.55
2018-04-25T10:50:19.108Z,10.20
2018-04-25T10:52:47.081Z,6.10
2018-04-25T10:55:14.799Z,5.87
2018-04-25T10:57:42.558Z,6.20
2018-04-25T11:00:10.148Z,5.30
2018-04-25T11:02:37.766Z,4.57
2018-04-25T11:05:05.356Z,5.30
2018-04-25T11:07:32.910Z,5.80
2018-04-25T11:10:00.443Z,5.07
2018-04-25T11:12:27.994Z,4.27
2018-04-25T11:14:55.520Z,4.40
2018-04-25T11:17:23.085Z,4.00
2018-04-25T11:19:50.625Z,3.57
2018-04-25T11:22:18.201Z,3.33
2018-04-25T11:24:45.715Z,4.50
2018-04-25T11:27:13.253Z,4.80
2018-04-25T11:29:40.880Z,5.30
2018-04-25T11:32:08.438Z,4.83
2018-04-25T11:34:35.986Z,4.73
2018-04-25T11:37:03.508Z,4.33
2018-04-25T11:39:31.067Z,4.93
2018-04-25T11:41:58.620Z,4.93
2018-04-25T11:44:31.048Z,5.03
2018-04-25T11:47:01.220Z,4.10
2018-04-25T11:49:28.812Z,4.17
2018-04-25T11:51:57.146Z,4.13
2018-04-25T11:54:25.033Z,3.87
2018-04-25T11:56:52.557Z,4.03
2018-04-25T11:59:20.110Z,3.60
2018-04-25T12:01:47.639Z,3.27
2018-04-25T12:04:15.214Z,3.75
2018-04-25T12:06:42.747Z,4.63
2018-04-25T12:09:10.339Z,3.40
2018-04-25T12:11:37.893Z,7.43
2018-04-25T12:14:05.445Z,6.57
2018-04-25T12:16:33.000Z,4.27
2018-04-25T12:19:00.597Z,6.43
2018-04-25T12:21:28.133Z,8.40
2018-04-25T12:23:55.685Z,5.80
2018-04-25T12:26:23.246Z,5.47
2018-04-25T12:28:50.914Z,5.40
2018-04-25T12:31:18.637Z,4.93
2018-04-25T12:33:46.236Z,4.67
2018-04-25T12:36:13.968Z,8.10
2018-04-25T12:38:43.278Z,5.60
2018-04-25T12:41:11.273Z,4.45
2018-04-25T12:43:40.153Z,5.30
2018-04-25T12:46:08.502Z,7.90
2018-04-25T12:48:38.253Z,8.43
2018-04-25T12:51:08.156Z,8.73
2018-04-25T12:53:36.710Z,13.03
2018-04-25T12:56:04.387Z,7.63
2018-04-25T12:58:32.132Z,17.10
2018-04-25T13:01:00.667Z,18.10
2018-04-25T13:03:28.929Z,15.52
2018-04-25T13:05:57.195Z,23.07
2018-04-25T13:08:25.162Z,11.95
2018-04-25T13:10:53.250Z,12.37
2018-04-25T13:13:24.925Z,5.17
2018-04-25T13:15:53.443Z,6.40
2018-04-25T13:18:21.181Z,7.80
2018-04-25T13:20:48.738Z,6.27
2018-04-25T13:23:16.337Z,13.10
2018-04-25T13:25:44.361Z,6.57
2018-04-25T13:28:17.543Z,6.10
2018-04-25T13:30:46.470Z,4.60
2018-04-25T13:33:16.717Z,4.20
2018-04-25T13:35:47.175Z,4.43
2018-04-25T13:38:14.739Z,4.43
2018-04-25T13:40:44.801Z,4.43
2018-04-25T13:43:17.157Z,4.57
2018-04-25T13:45:45.693Z,9.23
2018-04-25T13:48:13.851Z,4.03
2018-04-25T13:50:43.372Z,6.87
2018-04-25T13:53:11.911Z,3.93
2018-04-25T13:55:41.093Z,9.48
2018-04-25T13:58:11.693Z,6.87
2018-04-25T14:00:44.002Z,4.10
2018-04-25T14:03:13.142Z,5.87
2018-04-25T14:05:42.059Z,4.33
2018-04-25T14:08:11.963Z,4.97
2018-04-25T14:10:40.127Z,3.07
2018-04-25T14:13:08.562Z,5.23
2018-04-25T14:15:36.726Z,2.27
2018-04-25T14:18:04.525Z,7.97
2018-04-25T14:20:33.062Z,4.43
2018-04-25T14:23:01.507Z,6.07
2018-04-25T14:25:29.133Z,3.43
2018-04-25T14:27:56.642Z,2.40
2018-04-25T14:30:24.285Z,2.50
2018-04-25T14:32:52.321Z,4.90
2018-04-25T14:35:21.342Z,2.63
2018-04-25T14:37:50.437Z,2.20
2018-04-25T14:40:18.326Z,2.20
2018-04-25T14:42:45.857Z,2.93
2018-04-25T14:45:13.405Z,2.93
2018-04-25T14:47:41.961Z,2.50
2018-04-25T14:50:10.542Z,2.70
2018-04-25T14:52:38.158Z,2.57
2018-04-25T14:55:05.721Z,2.42
2018-04-25T14:57:33.242Z,2.50
2018-04-25T15:00:00.948Z,3.13
2018-04-25T15:02:28.500Z,3.37
2018-04-25T15:04:56.150Z,2.67
2018-04-25T15:07:23.720Z,3.50
2018-04-25T15:09:51.284Z,3.07
2018-04-25T15:12:18.833Z,3.20
2018-04-25T15:14:46.366Z,3.10
2018-04-25T15:17:13.943Z,3.87
2018-04-25T15:19:41.493Z,4.40
2018-04-25T15:22:09.075Z,2.93
2018-04-25T15:24:36.737Z,3.87
2018-04-25T15:27:04.504Z,10.40
2018-04-25T15:29:33.184Z,4.67
2018-04-25T15:32:00.848Z,5.25
2018-04-25T15:34:28.413Z,4.43
2018-04-25T15:36:56.079Z,47.73
2018-04-25T15:39:26.403Z,23.92
2018-04-25T15:41:56.177Z,7.00
2018-04-25T15:44:24.726Z,8.80
2018-04-25T15:46:52.432Z,4.73
2018-04-25T15:49:20.216Z,5.53
2018-04-25T15:51:48.006Z,6.27
2018-04-25T15:54:17.454Z,5.53
2018-04-25T15:56:47.458Z,5.70
2018-04-25T15:59:15.163Z,6.03
2018-04-25T16:01:45.464Z,7.00
2018-04-25T16:04:14.055Z,6.93
2018-04-25T16:06:45.263Z,6.63
2018-04-25T16:09:14.367Z,8.70
2018-04-25T16:11:41.878Z,6.70
2018-04-25T16:14:11.565Z,7.60
2018-04-25T16:16:40.166Z,7.07
2018-04-25T16:19:08.494Z,5.90
2018-04-25T16:21:36.004Z,6.30
2018-04-25T16:24:05.522Z,7.50
2018-04-25T16:26:34.175Z,7.33
2018-04-25T16:29:01.725Z,6.80
2018-04-25T16:31:32.559Z,6.67
2018-04-25T16:34:02.725Z,7.03
2018-04-25T16:36:30.791Z,6.28
2018-04-25T16:38:59.085Z,6.75
2018-04-25T16:41:28.950Z,6.23
2018-04-25T16:43:56.620Z,5.97
2018-04-25T16:46:25.602Z,7.03
2018-04-25T16:48:56.673Z,6.13
2018-04-25T16:51:27.045Z,5.43
2018-04-25T16:53:57.017Z,4.57
2018-04-25T16:56:24.556Z,4.33
2018-04-25T16:58:53.354Z,3.90
2018-04-25T17:01:22.305Z,3.40
2018-04-25T17:03:52.003Z,4.17
2018-04-25T17:06:19.848Z,3.60
2018-04-25T17:08:47.911Z,3.08
2018-04-25T17:11:16.974Z,4.30
2018-04-25T17:13:46.482Z,3.20
2018-04-25T17:16:18.652Z,3.73
2018-04-25T17:18:49.285Z,3.87
2018-04-25T17:21:17.981Z,4.63
2018-04-25T17:23:46.670Z,3.77
2018-04-25T17:26:15.490Z,3.40
2018-04-25T17:28:44.494Z,4.17
2018-04-25T17:31:14.542Z,4.40
2018-04-25T17:33:42.862Z,4.50
2018-04-25T17:36:10.717Z,5.03
2018-04-25T17:38:38.441Z,4.77
2018-04-25T17:41:06.314Z,4.40
2018-04-25T17:43:34.178Z,5.37
2018-04-25T17:46:02.917Z,5.83
2018-04-25T17:48:30.821Z,4.45
2018-04-25T17:51:00.377Z,4.90
2018-04-25T17:53:31.037Z,5.67
2018-04-25T17:55:58.656Z,4.67
2018-04-25T17:58:26.334Z,4.23
2018-04-25T18:00:54.139Z,4.33
2018-04-25T18:03:21.740Z,4.20
2018-04-25T18:05:49.264Z,4.20
2018-04-25T18:08:16.812Z,4.10
2018-04-25T18:10:44.367Z,4.03
2018-04-25T18:13:11.898Z,4.03
2018-04-25T18:15:39.822Z,4.83
2018-04-25T18:18:07.375Z,4.57
2018-04-25T18:20:34.932Z,6.77
2018-04-25T18:23:02.453Z,4.93
2018-04-25T18:25:30.000Z,5.57
2018-04-25T18:27:57.534Z,7.10
2018-04-25T18:30:25.142Z,4.87
2018-04-25T18:32:52.663Z,5.75
2018-04-25T18:35:20.214Z,5.63
2018-04-25T18:37:47.725Z,5.60
2018-04-25T18:40:15.270Z,6.60
2018-04-25T18:42:43.347Z,9.35
2018-04-25T18:45:11.119Z,5.40
2018-04-25T18:47:38.654Z,4.97
2018-04-25T18:50:06.213Z,5.03
2018-04-25T18:52:33.762Z,5.00
2018-04-25T18:55:02.240Z,6.60
2018-04-25T18:57:30.092Z,4.90
2018-04-25T19:00:09.812Z,4.60
2018-04-25T19:02:37.339Z,4.30
2018-04-25T19:05:04.963Z,4.23
2018-04-25T19:07:32.621Z,5.03
2018-04-25T19:10:00.227Z,5.50
2018-04-25T19:12:27.723Z,4.40
2018-04-25T19:14:55.402Z,5.18
2018-04-25T19:17:22.975Z,4.47
2018-04-25T19:19:51.531Z,5.60
2018-04-25T19:22:19.850Z,7.13
2018-04-25T19:24:47.484Z,6.10
2018-04-25T19:27:15.026Z,6.70
2018-04-25T19:29:43.461Z,6.53
2018-04-25T19:32:11.023Z,7.27
2018-04-25T19:34:38.643Z,6.33
2018-04-25T19:37:06.215Z,6.63
2018-04-25T19:39:33.754Z,6.07
2018-04-25T19:42:01.318Z,5.95
2018-04-25T19:44:28.876Z,6.73
2018-04-25T19:46:56.433Z,6.25
2018-04-25T19:49:24.001Z,5.97
2018-04-25T19:51:51.546Z,6.95
2018-04-25T19:54:21.861Z,6.40
2018-04-25T19:56:49.563Z,8.48
2018-04-25T19:59:17.166Z,8.47
2018-04-25T20:01:45.763Z,6.40
2018-04-25T20:04:15.289Z,7.10
2018-04-25T20:06:43.651Z,6.00
2018-04-25T20:09:11.229Z,6.77
2018-04-25T20:11:38.793Z,8.33
2018-04-25T20:14:06.346Z,6.70
2018-04-25T20:16:33.904Z,40.90
2018-04-25T20:19:01.463Z,6.35
2018-04-25T20:21:29.087Z,6.50
2018-04-25T20:23:56.703Z,7.47
2018-04-25T20:26:24.349Z,5.80
2018-04-25T20:28:51.888Z,7.33
2018-04-25T20:31:19.446Z,7.78
2018-04-25T20:33:46.973Z,6.17
2018-04-25T20:36:14.606Z,7.33
2018-04-25T20:38:42.254Z,7.40
2018-04-25T20:41:09.807Z,8.13
2018-04-25T20:43:37.415Z,9.03
2018-04-25T20:46:05.032Z,8.00
2018-04-25T20:48:32.760Z,9.32
2018-04-25T20:51:00.462Z,12.70
2018-04-25T20:53:28.016Z,9.30
2018-04-25T20:55:57.042Z,9.70
2018-04-25T20:58:24.615Z,9.07
2018-04-25T21:00:52.151Z,9.27
2018-04-25T21:03:21.425Z,8.92
2018-04-25T21:05:49.101Z,9.90
2018-04-25T21:08:17.007Z,11.33
2018-04-25T21:10:45.495Z,10.63
2018-04-25T21:13:14.533Z,10.57
2018-04-25T21:15:42.485Z,10.17
2018-04-25T21:18:10.860Z,11.10
2018-04-25T21:20:40.965Z,10.40
2018-04-25T21:23:08.798Z,12.20
2018-04-25T21:25:36.317Z,10.63
2018-04-25T21:28:03.940Z,9.73
2018-04-25T21:30:35.176Z,10.23
2018-04-25T21:33:03.501Z,10.83
2018-04-25T21:35:31.162Z,11.23
2018-04-25T21:37:58.729Z,12.23
2018-04-25T21:40:26.269Z,10.50
2018-04-25T21:42:53.838Z,10.27
2018-04-25T21:45:23.059Z,10.20
2018-04-25T21:47:52.829Z,10.80
2018-04-25T21:50:21.659Z,11.30
2018-04-25T21:52:49.312Z,10.60
2018-04-25T21:55:19.941Z,10.65
2018-04-25T21:57:47.834Z,10.43
2018-04-25T22:00:15.725Z,10.63
2018-04-25T22:02:44.145Z,11.82
2018-04-25T22:05:11.685Z,12.10
2018-04-25T22:07:39.367Z,12.30
2018-04-25T22:10:06.884Z,13.90
2018-04-25T22:12:34.467Z,12.07
2018-04-25T22:15:02.052Z,13.30
2018-04-25T22:17:29.589Z,19.73
2018-04-25T22:19:58.709Z,13.97
2018-04-25T22:22:26.567Z,14.23
2018-04-25T22:24:55.353Z,15.50
2018-04-25T22:27:23.809Z,14.55
2018-04-25T22:29:51.850Z,17.93
2018-04-25T22:32:20.456Z,19.57
2018-04-25T22:34:50.112Z,16.98
2018-04-25T22:37:17.687Z,19.93
2018-04-25T22:39:45.239Z,18.50
2018-04-25T22:42:12.813Z,15.33
2018-04-25T22:44:40.358Z,16.30
2018-04-25T22:47:07.998Z,15.85
2018-04-25T22:49:39.338Z,17.33
2018-04-25T22:52:10.993Z,16.27
2018-04-25T22:54:41.975Z,16.43
2018-04-25T22:57:10.854Z,15.37
2018-04-25T22:59:38.426Z,14.70
2018-04-25T23:02:06.049Z,12.73
2018-04-25T23:04:34.181Z,14.30
2018-04-25T23:07:01.736Z,14.20
2018-04-25T23:09:29.445Z,14.03
2018-04-25T23:11:57.055Z,15.00
2018-04-25T23:14:24.666Z,14.17
2018-04-25T23:16:52.195Z,14.63
2018-04-25T23:19:19.771Z,10.17
2018-04-25T23:21:47.298Z,10.23
2018-04-25T23:24:14.873Z,10.87
2018-04-25T23:26:42.462Z,11.63
2018-04-25T23:29:10.129Z,9.43
2018-04-25T23:31:37.684Z,11.13
2018-04-25T23:34:05.235Z,12.03
2018-04-25T23:36:32.802Z,10.27
2018-04-25T23:39:00.468Z,10.87
2018-04-25T23:41:27.990Z,10.10
2018-04-25T23:43:55.543Z,8.63
2018-04-25T23:46:23.068Z,9.80
2018-04-25T23:48:50.622Z,8.80
2018-04-25T23:51:18.272Z,16.98
2018-04-25T23:53:45.848Z,9.53
2018-04-25T23:56:14.276Z,9.80
2018-04-25T23:58:41.809Z,9.90
